Time;durP1;ratioP1;P1;durP2;ratioP2;P2;SDS_P1;SDS_P2;PMS_P1;PMS_P2;Temp;Humidity;BMP_temperature;BMP_pressure;BME280_temperature;BME280_humidity;BME280_pressure;Samples;Min_cycle;Max_cycle;Signal;HPM_P1;HPM_P2
2022/05/10 00:00:49;;;;;;;19.23;12.25;;;15.80;51.30;;;;;;5033348;28;20410;-69
2022/05/10 00:03:16;;;;;;;16.23;11.77;;;15.90;50.70;;;;;;5032209;28;20399;-70
2022/05/10 00:05:42;;;;;;;18.60;12.05;;;15.80;50.40;;;;;;5027122;28;20923;-70
2022/05/10 00:08:11;;;;;;;14.30;10.93;;;15.90;49.40;;;;;;5022538;28;20883;-69
2022/05/10 00:10:37;;;;;;;16.98;11.25;;;15.90;49.20;;;;;;5033462;28;20414;-70
2022/05/10 00:13:04;;;;;;;19.10;11.77;;;15.90;48.30;;;;;;5033407;28;20469;-70
2022/05/10 00:15:29;;;;;;;15.63;11.00;;;15.90;47.90;;;;;;5033711;28;20554;-70
2022/05/10 00:17:55;;;;;;;14.48;11.02;;;16.00;47.50;;;;;;5032782;28;20966;-70
2022/05/10 00:20:23;;;;;;;14.57;11.02;;;16.00;46.90;;;;;;5031995;28;20476;-70
2022/05/10 00:22:49;;;;;;;14.95;11.07;;;16.00;46.60;;;;;;5032746;28;20394;-71
2022/05/10 00:25:24;;;;;;;13.55;10.77;;;16.00;46.60;;;;;;5029631;28;20925;-71
2022/05/10 00:27:50;;;;;;;15.65;11.15;;;16.00;46.40;;;;;;5025932;28;20403;-69
2022/05/10 00:30:15;;;;;;;15.55;11.25;;;16.00;47.30;;;;;;5033377;28;20395;-71
2022/05/10 00:32:42;;;;;;;13.73;10.52;;;16.00;46.90;;;;;;5033278;28;20886;-71
2022/05/10 00:35:15;;;;;;;12.45;10.43;;;16.00;46.70;;;;;;5034234;28;20435;-72
2022/05/10 00:37:42;;;;;;;14.25;11.18;;;16.00;47.50;;;;;;5033594;28;20418;-71
2022/05/10 00:40:08;;;;;;;11.80;10.40;;;16.00;46.40;;;;;;5033856;28;20395;-71
2022/05/10 00:42:41;;;;;;;19.97;10.43;;;16.00;46.10;;;;;;5032014;28;20391;-71
2022/05/10 00:45:14;;;;;;;14.37;10.33;;;15.90;46.20;;;;;;5020499;28;20396;-70
2022/05/10 00:47:47;;;;;;;13.98;10.50;;;15.90;46.30;;;;;;5036598;28;20461;-70
2022/05/10 00:50:20;;;;;;;13.75;10.48;;;15.90;46.30;;;;;;5032797;28;20430;-71
2022/05/10 00:52:59;;;;;;;13.73;10.50;;;15.80;46.70;;;;;;5032850;28;20779;-71
2022/05/10 00:56:07;;;;;;;11.90;10.00;;;15.80;46.20;;;;;;5028564;28;20474;-72
2022/05/10 00:58:48;;;;;;;15.90;10.20;;;15.80;46.60;;;;;;5032307;28;20775;-70
2022/05/10 01:01:22;;;;;;;12.98;10.20;;;15.80;46.60;;;;;;5031913;28;20399;-71
2022/05/10 01:03:59;;;;;;;15.10;10.15;;;15.90;46.70;;;;;;5026936;28;20402;-71
2022/05/10 01:06:30;;;;;;;19.40;10.40;;;15.90;46.20;;;;;;5026424;28;20482;-71
2022/05/10 01:09:15;;;;;;;13.40;10.15;;;15.80;45.90;;;;;;5031156;28;20490;-71
2022/05/10 01:12:31;;;;;;;12.98;10.23;;;15.90;45.60;;;;;;5032172;28;20387;-71
2022/05/10 01:15:09;;;;;;;12.50;9.90;;;15.90;45.60;;;;;;4969889;28;20408;-71
2022/05/10 01:17:35;;;;;;;14.63;10.00;;;15.80;45.50;;;;;;5046594;28;20415;-71
2022/05/10 01:20:01;;;;;;;13.30;10.10;;;15.80;45.40;;;;;;5032085;28;20452;-71
2022/05/10 01:22:32;;;;;;;14.38;10.18;;;15.70;45.60;;;;;;5032544;28;20391;-70
2022/05/10 01:25:18;;;;;;;13.13;10.07;;;15.70;45.90;;;;;;5031775;28;20391;-70
2022/05/10 01:27:49;;;;;;;13.70;9.80;;;15.70;45.90;;;;;;5031902;28;20922;-70
2022/05/10 01:30:28;;;;;;;14.60;9.80;;;15.70;45.30;;;;;;5032011;28;20409;-70
2022/05/10 01:35:47;;;;;;;12.57;10.18;;;15.80;44.30;;;;;;5031977;28;20449;-71
2022/05/10 01:38:49;;;;;;;14.93;10.23;;;15.70;44.60;;;;;;5031597;28;20740;-71
2022/05/10 01:41:34;;;;;;;12.73;10.05;;;15.60;45.80;;;;;;5031352;28;20870;-70
2022/05/10 01:44:06;;;;;;;12.13;10.00;;;15.60;46.80;;;;;;5031092;28;20406;-70
2022/05/10 01:46:32;;;;;;;13.60;10.13;;;15.60;46.10;;;;;;5032057;28;20887;-70
2022/05/10 01:49:23;;;;;;;13.87;10.73;;;15.60;46.50;;;;;;5032303;28;20814;-71
2022/05/10 01:52:22;;;;;;;13.00;10.32;;;15.60;46.30;;;;;;5033556;28;20421;-70
2022/05/10 01:55:07;;;;;;;20.27;10.50;;;15.50;47.00;;;;;;5032912;28;20415;-70
2022/05/10 01:57:37;;;;;;;11.02;9.82;;;15.40;47.40;;;;;;5056971;22;20436;-75
2022/05/10 02:00:10;;;;;;;14.20;10.53;;;15.40;48.30;;;;;;5017982;28;20399;-74
2022/05/10 02:02:41;;;;;;;12.23;9.93;;;15.30;49.20;;;;;;5048983;28;20519;-75
2022/05/10 02:05:15;;;;;;;13.35;10.55;;;15.30;48.70;;;;;;5054841;28;20384;-74
2022/05/10 02:07:44;;;;;;;18.77;11.02;;;15.30;49.30;;;;;;5053644;28;20858;-75
2022/05/10 02:10:36;;;;;;;11.95;10.00;;;15.30;49.00;;;;;;5064279;28;20760;-75
2022/05/10 02:13:07;;;;;;;14.88;10.68;;;15.30;49.20;;;;;;5054252;28;20413;-75
2022/05/10 02:15:44;;;;;;;12.32;10.30;;;15.30;49.10;;;;;;5058225;28;20764;-76
2022/05/10 02:18:31;;;;;;;15.13;10.80;;;15.30;49.70;;;;;;5066534;28;20399;-74
2022/05/10 02:21:22;;;;;;;11.70;10.50;;;15.20;49.60;;;;;;5058196;28;20396;-75
2022/05/10 02:23:57;;;;;;;12.38;10.30;;;15.20;49.50;;;;;;5067283;28;20396;-75
2022/05/10 02:26:33;;;;;;;15.80;10.40;;;15.20;49.70;;;;;;5047092;28;20484;-75
2022/05/10 02:29:19;;;;;;;14.27;10.25;;;15.20;49.50;;;;;;5053604;28;20397;-75
2022/05/10 02:34:45;;;;;;;14.90;10.30;;;15.20;49.10;;;;;;5050081;28;20758;-73
2022/05/10 02:37:12;;;;;;;12.82;10.52;;;15.20;49.10;;;;;;5055372;28;20397;-75
2022/05/10 02:39:38;;;;;;;19.23;10.60;;;15.10;49.60;;;;;;5062821;28;20492;-75
2022/05/10 02:42:05;;;;;;;12.60;10.50;;;15.10;49.80;;;;;;5053391;28;20807;-75
2022/05/10 02:44:31;;;;;;;13.00;10.60;;;15.10;50.70;;;;;;5053436;28;20754;-74
2022/05/10 02:46:57;;;;;;;20.20;11.23;;;15.10;50.80;;;;;;5057874;28;20396;-75
2022/05/10 02:49:23;;;;;;;14.37;10.70;;;15.00;50.80;;;;;;5065365;28;20797;-75
2022/05/10 02:51:48;;;;;;;14.27;10.73;;;15.00;50.70;;;;;;5051120;28;20472;-75
2022/05/10 02:54:14;;;;;;;15.53;10.43;;;15.00;51.00;;;;;;5066399;28;20484;-74
2022/05/10 02:56:41;;;;;;;12.57;10.60;;;15.00;50.80;;;;;;5060671;28;20401;-75
2022/05/10 02:59:11;;;;;;;13.68;10.10;;;15.00;50.10;;;;;;5058963;28;20423;-73
2022/05/10 03:02:03;;;;;;;13.32;10.50;;;15.00;50.20;;;;;;5068991;28;20426;-74
2022/05/10 03:04:34;;;;;;;15.00;10.30;;;15.00;49.80;;;;;;5047235;28;20393;-74
2022/05/10 03:06:59;;;;;;;10.70;9.32;;;15.00;50.20;;;;;;5053197;28;20397;-75
2022/05/10 03:09:25;;;;;;;12.35;10.35;;;15.00;50.40;;;;;;5052513;28;20392;-75
2022/05/10 03:11:51;;;;;;;13.87;10.50;;;15.00;49.90;;;;;;5051991;28;20393;-74
2022/05/10 03:14:17;;;;;;;15.15;10.23;;;15.00;49.10;;;;;;5053817;28;20395;-74
2022/05/10 03:16:42;;;;;;;14.65;9.98;;;15.00;49.30;;;;;;5048893;28;20396;-75
2022/05/10 03:19:08;;;;;;;14.15;9.60;;;15.00;48.40;;;;;;5065004;28;20475;-74
2022/05/10 03:21:38;;;;;;;16.83;9.80;;;15.00;48.60;;;;;;5067138;28;20431;-73
2022/05/10 03:24:04;;;;;;;14.23;9.90;;;15.00;48.90;;;;;;5065710;28;20399;-74
2022/05/10 03:26:30;;;;;;;11.23;9.70;;;15.00;48.90;;;;;;5062184;28;20791;-75
2022/05/10 03:28:56;;;;;;;12.50;10.00;;;15.00;48.30;;;;;;5066025;28;20756;-74
2022/05/10 03:31:25;;;;;;;13.98;10.20;;;15.00;48.80;;;;;;5066614;28;20474;-75
2022/05/10 03:34:54;;;;;;;12.90;10.30;;;15.00;48.40;;;;;;5055930;28;20393;-74
2022/05/10 03:36:38;;;;;;;10.63;9.53;;;14.90;48.60;;;;;;5056203;28;20400;-74
2022/05/10 03:39:05;;;;;;;12.80;9.83;;;14.90;48.30;;;;;;5054974;28;20409;-75
2022/05/10 03:41:30;;;;;;;14.07;9.80;;;15.00;48.20;;;;;;5055083;28;20443;-74
2022/05/10 03:43:56;;;;;;;11.93;9.35;;;15.00;47.60;;;;;;5053497;28;20742;-74
2022/05/10 03:46:21;;;;;;;14.10;9.15;;;15.00;47.60;;;;;;5060337;28;20476;-76
2022/05/10 03:48:49;;;;;;;12.90;9.07;;;15.00;47.10;;;;;;5067183;28;20419;-74
2022/05/10 03:51:14;;;;;;;15.38;9.30;;;15.00;46.20;;;;;;5052990;28;20524;-73
2022/05/10 03:53:40;;;;;;;10.70;9.50;;;15.00;46.30;;;;;;5051372;28;20890;-75
2022/05/10 03:56:06;;;;;;;13.50;9.90;;;15.00;46.20;;;;;;5059389;28;20454;-74
2022/05/10 03:58:31;;;;;;;16.70;9.27;;;15.00;46.20;;;;;;5064401;28;20407;-74
2022/05/10 04:00:57;;;;;;;11.45;9.13;;;15.00;45.90;;;;;;5069718;28;20395;-73
2022/05/10 04:03:22;;;;;;;10.90;9.53;;;15.00;46.20;;;;;;5068393;28;20394;-74
2022/05/10 04:05:48;;;;;;;11.13;9.60;;;15.00;46.30;;;;;;5056080;28;20394;-75
2022/05/10 04:08:14;;;;;;;13.05;9.45;;;15.00;46.60;;;;;;5059660;28;20393;-75
2022/05/10 04:10:40;;;;;;;16.02;10.07;;;15.00;46.70;;;;;;5073062;28;20400;-76
2022/05/10 04:13:05;;;;;;;15.15;9.77;;;15.00;47.20;;;;;;5062154;28;20404;-75
2022/05/10 04:15:31;;;;;;;13.30;10.50;;;15.00;46.20;;;;;;5070811;28;20847;-74
2022/05/10 04:17:56;;;;;;;14.45;10.10;;;15.10;45.80;;;;;;5057030;28;20501;-75
2022/05/10 04:20:22;;;;;;;12.23;9.00;;;15.20;45.20;;;;;;5053483;28;20405;-74
2022/05/10 04:22:47;;;;;;;13.03;9.20;;;15.20;44.90;;;;;;5054871;28;20405;-75
2022/05/10 04:25:17;;;;;;;14.27;8.98;;;15.20;45.20;;;;;;5056883;28;20400;-75
2022/05/10 04:27:42;;;;;;;10.77;9.05;;;15.20;44.60;;;;;;5059632;28;20431;-74
2022/05/10 04:30:09;;;;;;;10.93;8.67;;;15.20;43.80;;;;;;5067181;28;20430;-74
2022/05/10 04:32:36;;;;;;;12.88;9.38;;;15.30;43.90;;;;;;5056190;28;20401;-75
2022/05/10 04:35:02;;;;;;;10.98;9.43;;;15.30;43.30;;;;;;5053807;28;20770;-74
2022/05/10 04:37:27;;;;;;;11.30;9.20;;;15.30;43.70;;;;;;5048539;28;20410;-74
2022/05/10 04:42:37;;;;;;;9.85;8.85;;;15.30;43.40;;;;;;5070091;28;20823;-75
2022/05/10 04:45:03;;;;;;;12.27;9.10;;;15.40;43.00;;;;;;5068487;28;20392;-74
2022/05/10 04:47:29;;;;;;;11.98;8.85;;;15.40;43.00;;;;;;5060462;28;20906;-75
2022/05/10 04:49:54;;;;;;;11.40;9.00;;;15.40;42.40;;;;;;5067649;28;20423;-74
2022/05/10 04:52:20;;;;;;;10.60;8.90;;;15.40;42.40;;;;;;5061035;28;20410;-75
2022/05/10 04:54:45;;;;;;;13.60;8.97;;;15.50;42.30;;;;;;5055413;28;20385;-74
2022/05/10 04:57:11;;;;;;;12.37;9.20;;;15.50;42.40;;;;;;5055727;28;21117;-75
2022/05/10 04:59:36;;;;;;;12.70;9.80;;;15.60;41.70;;;;;;5055120;28;20789;-74
2022/05/10 05:02:02;;;;;;;11.90;10.23;;;15.60;42.10;;;;;;5055273;28;20417;-73
2022/05/10 05:04:28;;;;;;;12.27;9.60;;;15.60;42.20;;;;;;5063209;28;20464;-74
2022/05/10 05:06:53;;;;;;;12.53;9.20;;;15.60;42.20;;;;;;5057392;28;20626;-75
2022/05/10 05:09:19;;;;;;;14.27;10.00;;;15.70;41.40;;;;;;5057049;28;20404;-75
2022/05/10 05:11:44;;;;;;;19.60;10.73;;;15.70;41.20;;;;;;5059504;28;20412;-75
2022/05/10 05:14:10;;;;;;;13.93;10.10;;;15.70;41.50;;;;;;5056493;28;20397;-75
2022/05/10 05:16:36;;;;;;;17.95;10.27;;;15.70;41.10;;;;;;5059913;28;20403;-74
2022/05/10 05:19:02;;;;;;;14.02;11.13;;;15.70;41.20;;;;;;5057385;28;20412;-74
2022/05/10 05:21:27;;;;;;;14.73;10.35;;;15.80;41.70;;;;;;5062939;28;20396;-74
2022/05/10 05:23:53;;;;;;;18.75;10.27;;;15.80;41.40;;;;;;5069494;28;20423;-75
2022/05/10 05:26:19;;;;;;;18.00;10.40;;;15.80;41.70;;;;;;5056815;28;20487;-73
2022/05/10 05:28:44;;;;;;;14.50;10.07;;;15.90;41.40;;;;;;5065080;28;20394;-74
2022/05/10 05:31:12;;;;;;;14.53;10.10;;;15.90;40.80;;;;;;5065186;28;20461;-73
2022/05/10 05:33:39;;;;;;;12.00;9.80;;;16.00;39.80;;;;;;5061199;28;20397;-75
2022/05/10 05:36:05;;;;;;;12.80;9.82;;;16.00;39.90;;;;;;5054290;28;20861;-75
2022/05/10 05:38:30;;;;;;;15.05;10.27;;;16.10;39.50;;;;;;5055115;28;20444;-75
2022/05/10 05:40:56;;;;;;;21.13;10.60;;;16.10;39.20;;;;;;5063717;28;20400;-76
2022/05/10 05:43:23;;;;;;;14.32;10.10;;;16.20;39.70;;;;;;5071244;28;20426;-74
2022/05/10 05:45:50;;;;;;;12.48;10.20;;;16.30;39.30;;;;;;5070341;28;20399;-74
2022/05/10 05:48:16;;;;;;;16.70;10.33;;;16.40;39.30;;;;;;5066805;28;20484;-75
2022/05/10 05:50:41;;;;;;;11.57;9.80;;;16.40;39.30;;;;;;5059786;28;20480;-74
2022/05/10 05:53:07;;;;;;;17.30;10.03;;;16.30;38.80;;;;;;5054156;28;20401;-74
2022/05/10 05:55:34;;;;;;;16.15;10.52;;;16.50;38.70;;;;;;5060611;28;20622;-73
2022/05/10 05:58:00;;;;;;;13.75;10.15;;;16.70;38.30;;;;;;5054335;28;20510;-74
2022/05/10 06:00:26;;;;;;;16.03;10.00;;;16.70;37.90;;;;;;5061423;28;20478;-75
2022/05/10 06:02:52;;;;;;;14.00;9.90;;;16.90;37.50;;;;;;5054245;28;20393;-74
2022/05/10 06:05:20;;;;;;;12.32;9.80;;;16.90;36.90;;;;;;5054775;28;20440;-74
2022/05/10 06:07:45;;;;;;;17.70;10.60;;;17.00;36.70;;;;;;5058018;28;20489;-75
2022/05/10 06:10:12;;;;;;;19.67;10.70;;;17.00;36.90;;;;;;5065915;28;20482;-75
2022/05/10 06:12:38;;;;;;;15.88;10.27;;;17.10;36.30;;;;;;5064462;28;20388;-75
2022/05/10 06:15:09;;;;;;;15.90;10.25;;;17.20;35.70;;;;;;5068715;28;20403;-74
2022/05/10 06:17:37;;;;;;;13.23;11.00;;;17.20;35.90;;;;;;5048717;28;20424;-75
2022/05/10 06:20:06;;;;;;;19.75;10.20;;;17.20;35.80;;;;;;5062736;28;20882;-74
2022/05/10 06:22:33;;;;;;;12.80;9.95;;;17.30;35.80;;;;;;5054317;28;20479;-74
2022/05/10 06:24:58;;;;;;;19.10;10.90;;;17.30;35.70;;;;;;5064975;28;20477;-73
2022/05/10 06:27:24;;;;;;;14.97;10.43;;;17.30;36.40;;;;;;5061960;28;20917;-74
2022/05/10 06:29:49;;;;;;;16.73;10.73;;;17.30;36.00;;;;;;5062248;28;20388;-75
2022/05/10 06:32:24;;;;;;;15.38;10.00;;;17.40;35.90;;;;;;5062085;28;20393;-75
2022/05/10 06:34:50;;;;;;;11.83;9.80;;;17.40;35.90;;;;;;5064891;28;20394;-74
2022/05/10 06:40:05;;;;;;;18.13;10.50;;;17.40;36.00;;;;;;5062098;28;20451;-73
2022/05/10 06:42:31;;;;;;;15.45;10.85;;;17.50;36.00;;;;;;5059809;28;20459;-74
2022/05/10 06:44:56;;;;;;;13.13;9.90;;;17.60;35.90;;;;;;5046986;28;20500;-74
2022/05/10 06:47:22;;;;;;;12.68;9.80;;;17.80;35.10;;;;;;5069755;28;20401;-77
2022/05/10 06:49:47;;;;;;;16.07;10.00;;;18.00;34.90;;;;;;5055761;28;20489;-75
2022/05/10 06:52:17;;;;;;;15.32;9.48;;;18.20;33.90;;;;;;5061071;28;20868;-76
2022/05/10 06:54:42;;;;;;;15.68;10.00;;;18.40;33.10;;;;;;5053211;28;20405;-75
2022/05/10 06:57:08;;;;;;;17.60;10.80;;;18.60;33.20;;;;;;5049474;28;20405;-76
2022/05/10 06:59:34;;;;;;;13.80;9.30;;;18.80;32.40;;;;;;5050553;28;20464;-76
2022/05/10 07:01:59;;;;;;;15.40;9.60;;;18.90;31.50;;;;;;5054142;28;20402;-76
2022/05/10 07:04:24;;;;;;;12.00;9.27;;;19.10;30.70;;;;;;5050248;28;20463;-75
2022/05/10 07:06:50;;;;;;;10.37;9.27;;;19.40;29.10;;;;;;5055149;28;20389;-76
2022/05/10 07:09:18;;;;;;;14.20;9.73;;;19.50;29.00;;;;;;5057952;28;20496;-77
2022/05/10 07:11:43;;;;;;;15.88;9.23;;;19.70;27.80;;;;;;5053679;28;20403;-75
2022/05/10 07:14:09;;;;;;;15.98;9.88;;;19.80;28.00;;;;;;5057562;28;20390;-77
2022/05/10 07:16:35;;;;;;;13.03;8.80;;;20.10;27.10;;;;;;5059507;28;20396;-77
2022/05/10 07:19:00;;;;;;;10.25;8.80;;;20.20;27.10;;;;;;5055476;28;20906;-76
2022/05/10 07:21:26;;;;;;;11.20;8.57;;;20.40;25.90;;;;;;5053354;28;20882;-76
2022/05/10 07:23:52;;;;;;;13.67;8.60;;;20.60;24.80;;;;;;5054221;28;20401;-77
2022/05/10 07:26:17;;;;;;;16.00;9.07;;;20.80;24.60;;;;;;5054684;28;20394;-75
2022/05/10 07:28:43;;;;;;;9.70;8.70;;;21.10;24.30;;;;;;5057157;28;20460;-75
2022/05/10 07:31:08;;;;;;;14.70;8.73;;;21.20;23.00;;;;;;5065474;28;20405;-75
2022/05/10 07:33:34;;;;;;;12.52;8.23;;;21.30;22.50;;;;;;5068994;28;20759;-77
2022/05/10 07:38:44;;;;;;;14.73;8.75;;;21.40;22.60;;;;;;5077909;28;20411;-75
2022/05/10 07:41:11;;;;;;;11.68;8.32;;;21.20;22.40;;;;;;5083515;28;20399;-73
2022/05/10 07:43:38;;;;;;;15.13;9.05;;;21.10;23.30;;;;;;5081572;28;20860;-75
2022/05/10 07:46:04;;;;;;;13.68;8.77;;;21.00;24.10;;;;;;5082962;28;20459;-73
2022/05/10 07:48:30;;;;;;;14.43;8.63;;;21.00;24.50;;;;;;5079858;28;20810;-75
2022/05/10 07:50:56;;;;;;;12.45;10.00;;;21.00;24.10;;;;;;5071390;28;20405;-75
2022/05/10 07:53:22;;;;;;;13.23;9.68;;;21.10;24.20;;;;;;5068808;28;20735;-75
2022/05/10 07:55:48;;;;;;;12.05;9.55;;;21.00;23.90;;;;;;5064870;28;20397;-75
2022/05/10 07:58:14;;;;;;;11.77;9.50;;;20.90;24.10;;;;;;5085562;22;20419;-74
2022/05/10 08:00:41;;;;;;;17.70;9.60;;;21.00;23.90;;;;;;5073049;28;20423;-73
2022/05/10 08:03:19;;;;;;;17.03;9.37;;;21.00;24.00;;;;;;5072517;28;20422;-73
2022/05/10 08:05:46;;;;;;;13.38;9.40;;;21.10;23.90;;;;;;5067077;28;20388;-73
2022/05/10 08:08:12;;;;;;;17.25;9.32;;;21.20;23.00;;;;;;5069605;28;20388;-73
2022/05/10 08:10:40;;;;;;;14.80;9.80;;;21.40;23.70;;;;;;5072275;28;20444;-72
2022/05/10 08:13:10;;;;;;;13.57;9.77;;;21.60;22.50;;;;;;5072380;28;20388;-73
2022/05/10 08:15:36;;;;;;;14.38;9.85;;;21.60;21.40;;;;;;5071897;28;20392;-74
2022/05/10 08:18:02;;;;;;;14.75;10.13;;;21.70;22.30;;;;;;5072552;28;20861;-74
2022/05/10 08:20:27;;;;;;;16.37;9.27;;;21.90;22.40;;;;;;5072683;28;20395;-74
2022/05/10 08:22:53;;;;;;;14.80;9.52;;;22.00;22.20;;;;;;5075406;28;20655;-73
2022/05/10 08:25:18;;;;;;;15.30;9.73;;;22.10;21.10;;;;;;5076074;28;20489;-74
2022/05/10 08:27:44;;;;;;;14.23;9.37;;;22.20;20.80;;;;;;5074656;28;20403;-73
2022/05/10 08:30:10;;;;;;;13.13;9.47;;;22.50;20.70;;;;;;5077656;28;20438;-74
2022/05/10 08:32:35;;;;;;;11.52;9.13;;;22.70;20.60;;;;;;5077716;28;20502;-73
2022/05/10 08:35:01;;;;;;;16.47;9.77;;;22.90;20.00;;;;;;5079765;28;20748;-74
2022/05/10 08:37:27;;;;;;;15.77;9.40;;;23.10;19.50;;;;;;5075595;28;20469;-73
2022/05/10 08:39:52;;;;;;;16.17;9.60;;;23.50;18.10;;;;;;5071562;28;20484;-74
2022/05/10 08:42:30;;;;;;;18.23;9.18;;;23.60;17.80;;;;;;5071737;28;20718;-74
2022/05/10 08:45:04;;;;;;;15.48;9.80;;;23.70;17.60;;;;;;5066801;28;20396;-74
2022/05/10 08:47:30;;;;;;;16.40;9.00;;;24.00;17.10;;;;;;5070671;28;20392;-73
2022/05/10 08:50:04;;;;;;;17.45;8.90;;;24.50;17.10;;;;;;5072874;28;20984;-74
2022/05/10 08:52:33;;;;;;;11.60;8.70;;;24.80;15.10;;;;;;5071895;28;20403;-72
2022/05/10 08:54:59;;;;;;;11.20;8.38;;;25.20;15.00;;;;;;5071973;28;20596;-73
2022/05/10 08:57:53;;;;;;;14.70;8.40;;;25.50;14.30;;;;;;5071825;28;20402;-74
2022/05/10 09:00:30;;;;;;;13.13;8.13;;;25.80;13.60;;;;;;5068514;28;20396;-72
2022/05/10 09:02:57;;;;;;;16.67;9.38;;;25.80;13.20;;;;;;5066620;28;20394;-73
2022/05/10 09:05:37;;;;;;;12.73;8.60;;;25.80;13.30;;;;;;5067676;28;20440;-73
2022/05/10 09:08:37;;;;;;;16.48;7.85;;;25.70;13.10;;;;;;5069803;28;20391;-73
2022/05/10 09:11:05;;;;;;;11.02;7.80;;;25.70;13.20;;;;;;5071915;28;20403;-75
2022/05/10 09:13:31;;;;;;;12.20;7.82;;;25.50;13.00;;;;;;5071947;28;20388;-74
2022/05/10 09:15:59;;;;;;;10.15;7.30;;;25.50;13.70;;;;;;5071536;28;20384;-75
2022/05/10 09:18:31;;;;;;;12.18;7.30;;;25.60;14.20;;;;;;5071830;28;20536;-74
2022/05/10 09:21:14;;;;;;;13.02;7.07;;;25.60;13.80;;;;;;5074783;28;20392;-73
2022/05/10 09:24:08;;;;;;;10.15;6.70;;;25.70;13.80;;;;;;5068571;28;20383;-74
2022/05/10 09:26:37;;;;;;;9.75;6.47;;;25.90;13.00;;;;;;5068965;28;20399;-74
2022/05/10 09:29:09;;;;;;;12.45;6.78;;;26.30;12.30;;;;;;5070142;28;20733;-74
2022/05/10 09:37:45;;;;;;;9.90;6.32;;;26.50;13.00;;;;;;5067669;28;20901;-74
2022/05/10 09:40:41;;;;;;;8.98;6.97;;;26.80;12.10;;;;;;5065622;28;20396;-74
2022/05/10 09:43:23;;;;;;;10.50;6.60;;;27.10;11.30;;;;;;5064933;28;20383;-75
2022/05/10 09:46:22;;;;;;;8.18;6.00;;;27.30;10.60;;;;;;5065172;28;20491;-76
2022/05/10 09:48:48;;;;;;;10.40;6.70;;;27.60;8.80;;;;;;5069669;28;20825;-74
2022/05/10 09:51:36;;;;;;;13.90;6.38;;;28.00;9.00;;;;;;5069365;28;20419;-74
2022/05/10 09:54:16;;;;;;;13.60;6.38;;;28.30;9.10;;;;;;5070095;28;20922;-74
2022/05/10 09:56:44;;;;;;;8.57;5.60;;;28.50;8.60;;;;;;5069147;28;20872;-74
2022/05/10 09:59:28;;;;;;;9.48;5.85;;;28.80;7.30;;;;;;5070017;28;20763;-73
2022/05/10 10:01:58;;;;;;;14.77;5.07;;;29.00;6.50;;;;;;5069714;28;20391;-75
2022/05/10 10:04:35;;;;;;;9.25;4.35;;;29.20;5.20;;;;;;5068465;28;20392;-75
2022/05/10 10:07:21;;;;;;;7.35;4.07;;;28.60;5.50;;;;;;5068795;28;20402;-75
2022/05/10 10:09:48;;;;;;;9.73;5.07;;;28.30;4.20;;;;;;5067951;28;20387;-75
2022/05/10 10:12:32;;;;;;;6.47;4.32;;;28.40;4.40;;;;;;5069726;28;20918;-75
2022/05/10 10:14:58;;;;;;;6.22;4.25;;;28.60;3.50;;;;;;5069964;28;20425;-75
2022/05/10 10:17:37;;;;;;;13.43;4.55;;;28.80;3.60;;;;;;5069946;28;20725;-76
2022/05/10 10:20:27;;;;;;;5.80;4.00;;;29.00;3.80;;;;;;5074760;28;20405;-76
2022/05/10 10:22:55;;;;;;;5.63;4.13;;;28.90;1.80;;;;;;5070246;28;20401;-78
2022/05/10 10:25:28;;;;;;;11.05;4.70;;;28.80;2.90;;;;;;5070503;28;20395;-76
2022/05/10 10:28:04;;;;;;;4.70;4.13;;;28.80;2.40;;;;;;5070096;28;20399;-76
2022/05/10 10:30:41;;;;;;;8.23;4.45;;;28.50;3.10;;;;;;5070199;28;20400;-77
2022/05/10 10:33:29;;;;;;;7.03;4.70;;;28.60;2.80;;;;;;5069137;28;20418;-76
2022/05/10 10:35:59;;;;;;;5.10;4.38;;;28.70;3.20;;;;;;5065225;28;20414;-76
2022/05/10 10:38:44;;;;;;;7.90;4.55;;;28.90;3.00;;;;;;5070330;28;20403;-77
2022/05/10 10:41:30;;;;;;;7.53;4.80;;;28.80;2.50;;;;;;5066045;28;20400;-75
2022/05/10 10:44:07;;;;;;;8.70;4.55;;;28.30;3.30;;;;;;5068019;28;20391;-77
2022/05/10 10:46:45;;;;;;;11.60;4.53;;;28.20;3.70;;;;;;5073636;28;20919;-76
2022/05/10 10:49:13;;;;;;;8.10;4.70;;;28.30;3.80;;;;;;5069598;28;20533;-77
2022/05/10 10:51:39;;;;;;;7.30;4.40;;;28.50;2.50;;;;;;5072331;28;20391;-75
2022/05/10 10:54:17;;;;;;;6.78;4.13;;;28.50;2.60;;;;;;5074649;28;20403;-77
2022/05/10 10:57:06;;;;;;;7.90;4.50;;;28.40;2.30;;;;;;5071049;28;20402;-77
2022/05/10 10:59:48;;;;;;;10.02;4.38;;;28.10;2.90;;;;;;5066503;28;20404;-76
2022/05/10 11:02:25;;;;;;;9.55;5.00;;;27.60;3.20;;;;;;5067833;28;20915;-77
2022/05/10 11:05:19;;;;;;;8.70;4.40;;;27.40;4.10;;;;;;5066574;28;20828;-77
2022/05/10 11:08:21;;;;;;;9.27;4.90;;;27.40;3.80;;;;;;5067736;28;20392;-77
2022/05/10 11:11:09;;;;;;;8.45;4.80;;;27.40;3.60;;;;;;5067902;28;20450;-77
2022/05/10 11:13:40;;;;;;;5.95;4.55;;;27.60;3.80;;;;;;5069185;28;20500;-76
2022/05/10 11:16:24;;;;;;;5.85;4.53;;;27.70;3.80;;;;;;5069269;28;20395;-76
2022/05/10 11:19:14;;;;;;;9.85;4.47;;;27.90;2.80;;;;;;5068200;28;20407;-76
2022/05/10 11:21:58;;;;;;;5.55;4.68;;;27.90;2.70;;;;;;5066806;28;20536;-76
2022/05/10 11:24:43;;;;;;;8.40;4.83;;;27.70;3.00;;;;;;5067882;28;20904;-76
2022/05/10 11:27:51;;;;;;;10.43;4.38;;;27.70;3.30;;;;;;5066464;28;20395;-75
2022/05/10 11:30:24;;;;;;;10.05;4.70;;;27.60;3.40;;;;;;5047901;28;20395;-76
2022/05/10 11:33:07;;;;;;;10.38;5.10;;;27.60;3.60;;;;;;5066931;28;20391;-76
2022/05/10 11:35:58;;;;;;;8.85;4.63;;;27.40;4.40;;;;;;5068236;28;20806;-76
2022/05/10 11:38:51;;;;;;;13.35;4.93;;;27.50;3.90;;;;;;5063680;28;20928;-75
2022/05/10 11:41:45;;;;;;;8.40;4.30;;;27.80;3.50;;;;;;5066001;28;20396;-77
2022/05/10 11:44:40;;;;;;;8.95;4.63;;;27.70;3.80;;;;;;5051613;28;20410;-76
2022/05/10 11:47:38;;;;;;;5.53;4.35;;;27.50;3.80;;;;;;5065203;28;20395;-76
2022/05/10 11:50:09;;;;;;;9.27;5.05;;;27.30;4.40;;;;;;5069396;28;20474;-75
2022/05/10 11:52:56;;;;;;;8.23;4.50;;;27.40;4.30;;;;;;5073230;28;20395;-75
2022/05/10 11:55:31;;;;;;;10.55;5.00;;;27.60;4.20;;;;;;5069208;28;20406;-75
2022/05/10 11:57:59;;;;;;;8.77;4.88;;;27.80;4.50;;;;;;5065706;28;20910;-75
2022/05/10 12:00:31;;;;;;;7.68;4.70;;;27.70;4.20;;;;;;5070080;28;20415;-75
2022/05/10 12:03:05;;;;;;;13.20;5.47;;;27.90;4.70;;;;;;5064831;28;20388;-76
2022/05/10 12:05:35;;;;;;;9.18;4.50;;;28.10;3.70;;;;;;5069798;28;20487;-76
2022/05/10 12:08:25;;;;;;;11.65;5.70;;;28.50;3.40;;;;;;5064745;28;20791;-76
2022/05/10 12:10:51;;;;;;;9.48;5.18;;;28.60;2.50;;;;;;5068618;28;20483;-76
2022/05/10 12:22:47;;;;;;;8.07;4.60;;;28.90;2.40;;;;;;5069364;28;20383;-76
2022/05/10 12:25:41;;;;;;;12.02;5.80;;;28.60;2.20;;;;;;5072131;28;20395;-76
2022/05/10 12:28:07;;;;;;;6.05;5.45;;;28.40;2.60;;;;;;5071344;28;20396;-75
2022/05/10 12:30:34;;;;;;;7.47;5.23;;;28.40;2.80;;;;;;5076738;28;20406;-76
2022/05/10 12:33:36;;;;;;;12.05;5.80;;;28.40;3.00;;;;;;5068995;28;20884;-76
2022/05/10 12:36:07;;;;;;;5.20;4.70;;;28.50;2.90;;;;;;5069072;28;20406;-75
2022/05/10 12:38:54;;;;;;;9.75;5.35;;;28.50;3.00;;;;;;5073324;28;20846;-77
2022/05/10 12:41:49;;;;;;;7.57;5.45;;;28.60;3.20;;;;;;5069834;28;20713;-76
2022/05/10 12:44:33;;;;;;;8.20;5.78;;;28.90;2.70;;;;;;5034342;28;20401;-76
2022/05/10 12:47:08;;;;;;;10.73;5.63;;;28.80;2.70;;;;;;5076658;28;20399;-75
2022/05/10 12:50:00;;;;;;;7.80;5.25;;;28.70;2.60;;;;;;5074572;28;20406;-76
2022/05/10 12:52:43;;;;;;;9.25;5.00;;;28.60;2.30;;;;;;5069878;28;20388;-77
2022/05/10 12:55:22;;;;;;;6.82;4.95;;;28.50;2.40;;;;;;5073997;28;20725;-78
2022/05/10 12:58:05;;;;;;;6.13;5.15;;;28.60;2.20;;;;;;5081526;28;20450;-76
2022/05/10 13:00:36;;;;;;;8.68;5.20;;;28.60;2.70;;;;;;5075818;28;20399;-77
2022/05/10 13:03:12;;;;;;;7.22;5.40;;;28.60;3.30;;;;;;5067082;28;20911;-77
2022/05/10 13:06:10;;;;;;;7.35;5.25;;;28.30;3.30;;;;;;5073906;28;20396;-78
2022/05/10 13:08:50;;;;;;;9.63;5.80;;;28.30;3.80;;;;;;5074480;28;20916;-76
2022/05/10 13:11:17;;;;;;;7.68;5.32;;;28.60;3.50;;;;;;5066509;28;20932;-77
2022/05/10 13:13:45;;;;;;;9.88;5.30;;;28.80;3.00;;;;;;5064356;28;20397;-78
2022/05/10 13:16:17;;;;;;;9.00;5.45;;;28.90;2.70;;;;;;5072220;28;20399;-76
2022/05/10 13:18:46;;;;;;;10.80;6.00;;;29.00;3.60;;;;;;5070457;28;20536;-77
2022/05/10 13:21:12;;;;;;;11.70;5.40;;;29.20;3.30;;;;;;5072036;28;20388;-76
2022/05/10 13:23:39;;;;;;;9.15;5.30;;;29.40;3.40;;;;;;5072774;28;20403;-76
2022/05/10 13:26:07;;;;;;;7.57;5.47;;;29.50;2.90;;;;;;5071834;28;20391;-77
2022/05/10 13:28:47;;;;;;;10.00;5.30;;;29.50;1.60;;;;;;5072788;28;20402;-76
2022/05/10 13:31:19;;;;;;;11.23;5.82;;;29.40;1.90;;;;;;5060474;28;20884;-77
2022/05/10 13:33:44;;;;;;;9.88;5.13;;;29.00;2.40;;;;;;5068669;28;20399;-76